Terminal Aerodrome Forecast
Issued by NWS

Home | Current Version | Previous Version | Text Only | Print | Product List | Glossary On
Versions: 1 2 3 4 5 6 7 8 9 10 11 12 13 14 15 16 17
000
FTUS44 KSJT 010000 CCA
TAFSOA
TAF COR
KSOA 010040Z 0100/0124 18011KT P6SM OVC012
     FM010400 20006KT 4SM -DZ BR BKN005
     FM011700 24006KT P6SM BKN012
     FM011900 36013G20KT P6SM SCT030=

USA.gov is the U.S. government's official web portal to all federal, state and local government web resources and services.